createdAt,value
2024-02-07T00:00:17.914Z,6.78603
2024-02-07T00:05:19.782Z,6.80413
2024-02-07T00:10:21.649Z,6.71616
2024-02-07T00:15:23.687Z,7.03121
2024-02-07T00:20:25.363Z,6.99246
2024-02-07T00:25:26.942Z,7.3688
2024-02-07T00:30:34.329Z,7.08329
2024-02-07T00:35:40.431Z,6.72124
2024-02-07T00:40:42.412Z,6.71775
2024-02-07T00:45:44.044Z,6.61517
2024-02-07T00:50:45.642Z,6.63486
2024-02-07T00:55:47.386Z,6.55419
2024-02-07T01:00:49.080Z,6.34967
2024-02-07T01:05:50.616Z,5.99588
2024-02-07T01:10:52.198Z,6.42843
2024-02-07T01:15:53.749Z,6.04002
2024-02-07T01:20:55.237Z,6.18579
2024-02-07T01:25:56.720Z,6.26456
2024-02-07T01:30:58.262Z,6.25979
2024-02-07T01:35:59.737Z,6.36491
2024-02-07T01:41:01.352Z,6.15848
2024-02-07T01:46:02.991Z,6.06098
2024-02-07T01:51:15.455Z,5.85741
2024-02-07T01:56:16.955Z,4.85544
2024-02-07T02:01:18.566Z,5.1654
2024-02-07T02:06:19.961Z,5.50299
2024-02-07T02:11:21.502Z,5.39851
2024-02-07T02:16:23.074Z,5.56619
2024-02-07T02:21:24.574Z,5.30418
2024-02-07T02:26:26.117Z,5.55412
2024-02-07T02:31:27.658Z,5.42518
2024-02-07T02:36:29.161Z,5.48394
2024-02-07T02:41:30.859Z,5.31467
2024-02-07T02:46:32.472Z,5.53538
2024-02-07T02:51:34.060Z,5.85424
2024-02-07T02:56:35.595Z,5.41089
2024-02-07T03:01:37.209Z,5.51569
2024-02-07T03:06:38.819Z,5.63955
2024-02-07T03:11:40.394Z,5.7434
2024-02-07T03:16:42.015Z,5.78532
2024-02-07T03:21:43.553Z,5.54364
2024-02-07T03:26:44.926Z,5.69005
2024-02-07T03:31:46.627Z,5.74213
2024-02-07T03:36:48.280Z,5.76277
2024-02-07T03:41:49.715Z,5.81994
2024-02-07T03:46:51.349Z,5.91871
2024-02-07T03:51:52.940Z,5.81676
2024-02-07T03:56:54.528Z,5.46742
2024-02-07T04:01:56.201Z,5.41089
2024-02-07T04:06:57.834Z,5.50521
2024-02-07T04:11:59.337Z,5.60557
2024-02-07T04:17:00.765Z,5.85011
2024-02-07T04:22:02.251Z,5.41407
2024-02-07T04:27:03.774Z,5.49473
2024-02-07T04:32:05.289Z,5.41248
2024-02-07T04:37:07.412Z,5.71482
2024-02-07T04:42:19.710Z,5.60843
2024-02-07T04:47:21.245Z,5.51919
2024-02-07T04:52:22.802Z,5.30133
2024-02-07T04:57:24.364Z,5.34928
2024-02-07T05:02:25.904Z,5.17556
2024-02-07T05:07:27.485Z,4.93071
2024-02-07T05:12:28.991Z,5.09776
2024-02-07T05:17:30.882Z,5.04853
2024-02-07T05:22:32.649Z,4.8926
2024-02-07T05:27:34.288Z,5.02662
2024-02-07T05:32:35.835Z,5.14127
2024-02-07T05:37:37.430Z,4.90435
2024-02-07T05:42:39.226Z,4.98311
2024-02-07T05:47:40.753Z,5.02281
2024-02-07T05:52:42.287Z,5.11078
2024-02-07T05:57:43.950Z,4.92849
2024-02-07T06:02:45.513Z,4.72365
2024-02-07T06:07:47.225Z,5.04726
2024-02-07T06:12:48.905Z,5.29593
2024-02-07T06:17:50.693Z,4.64108
2024-02-07T06:23:03.271Z,4.93484
2024-02-07T06:28:04.773Z,4.84592
2024-02-07T06:33:06.485Z,5.09649
2024-02-07T06:38:08.003Z,4.79923
2024-02-07T06:43:09.645Z,5.01328
2024-02-07T06:48:11.199Z,4.92531
2024-02-07T06:53:14.330Z,4.83893
2024-02-07T06:58:16.071Z,5.00693
2024-02-07T07:03:17.538Z,5.05457
2024-02-07T07:08:18.972Z,5.10506
2024-02-07T07:13:20.655Z,5.14063
2024-02-07T07:18:22.263Z,5.63129
2024-02-07T07:23:23.976Z,4.5566
2024-02-07T07:28:25.478Z,4.79891
2024-02-07T07:33:27.589Z,4.74302
2024-02-07T07:38:29.559Z,5.19621
2024-02-07T07:43:31.308Z,5.16699
2024-02-07T07:48:33.069Z,5.13587
2024-02-07T07:53:34.838Z,4.84084
2024-02-07T07:58:44.478Z,4.86275
2024-02-07T08:03:50.576Z,5.07394
2024-02-07T08:08:52.045Z,4.67093
2024-02-07T08:13:53.660Z,5.10411
2024-02-07T08:18:56.103Z,5.23591
2024-02-07T08:23:58.014Z,5.20923
2024-02-07T08:28:59.674Z,5.40708
2024-02-07T08:34:01.369Z,5.11522
2024-02-07T08:44:24.307Z,4.85798
2024-02-07T08:49:25.804Z,4.51945
2024-02-07T08:54:27.259Z,4.36828
2024-02-07T08:59:29.565Z,4.90657
2024-02-07T09:04:42.619Z,5.0263
2024-02-07T09:09:44.514Z,5.02662
2024-02-07T09:14:46.076Z,5.26703
2024-02-07T09:19:47.587Z,5.12793
2024-02-07T09:24:59.579Z,5.05552
2024-02-07T09:30:08.011Z,4.68173
2024-02-07T09:35:13.883Z,4.67728
2024-02-07T09:40:15.647Z,5.14095
2024-02-07T09:45:17.190Z,5.15048
2024-02-07T09:50:18.997Z,5.11491
2024-02-07T09:55:20.809Z,5.16858
2024-02-07T10:00:22.466Z,5.34738
2024-02-07T10:05:24.431Z,4.96469
2024-02-07T10:10:26.045Z,5.00693
2024-02-07T10:15:27.472Z,5.08696
2024-02-07T10:20:28.856Z,5.21304
2024-02-07T10:25:30.462Z,4.99899
2024-02-07T10:30:32.278Z,5.02249
2024-02-07T10:35:34.129Z,5.05298
2024-02-07T10:40:47.157Z,5.23781
2024-02-07T10:45:48.779Z,5.26957
2024-02-07T10:50:50.439Z,4.98216
2024-02-07T10:55:52.087Z,4.87482
2024-02-07T11:00:53.656Z,4.88434
2024-02-07T11:05:55.642Z,4.90022
2024-02-07T11:10:57.455Z,5.00788
2024-02-07T11:15:59.048Z,5.1473
2024-02-07T11:21:00.500Z,5.20319
2024-02-07T11:26:02.242Z,5.24035
2024-02-07T11:31:03.923Z,5.06981
2024-02-07T11:36:05.530Z,4.79733
2024-02-07T11:41:07.356Z,4.49912
2024-02-07T11:46:08.941Z,4.40734
2024-02-07T11:51:10.519Z,4.87291
2024-02-07T11:56:12.238Z,4.9866
2024-02-07T12:01:14.391Z,5.05298
2024-02-07T12:06:16.059Z,5.04091
2024-02-07T12:11:17.743Z,5.31721
2024-02-07T12:16:19.182Z,5.13618
2024-02-07T12:21:23.435Z,5.18128
2024-02-07T12:26:26.907Z,5.10347
2024-02-07T12:31:28.387Z,5.16985
2024-02-07T12:36:29.825Z,5.14666
2024-02-07T12:41:31.414Z,5.07426
2024-02-07T12:46:33.014Z,5.17302
2024-02-07T12:51:34.729Z,5.08505
2024-02-07T12:56:36.365Z,4.89387
2024-02-07T13:01:37.885Z,4.96787
2024-02-07T13:06:39.515Z,4.83512
2024-02-07T13:11:41.020Z,5.09109
2024-02-07T13:16:42.994Z,4.88942
2024-02-07T13:21:44.534Z,4.65918
2024-02-07T13:26:46.024Z,4.60043
2024-02-07T13:31:47.641Z,4.51278
2024-02-07T13:36:49.327Z,4.40416
2024-02-07T13:41:50.902Z,4.46546
2024-02-07T13:46:52.800Z,4.40385
2024-02-07T13:51:54.390Z,4.49626
2024-02-07T13:56:55.864Z,4.31905
2024-02-07T14:01:57.748Z,4.37304
2024-02-07T14:06:59.239Z,4.24156
2024-02-07T14:12:00.955Z,4.35685
2024-02-07T14:17:02.615Z,4.51151
2024-02-07T14:22:04.807Z,4.40067
2024-02-07T14:27:06.453Z,4.39495
2024-02-07T14:32:07.943Z,4.47213
2024-02-07T14:37:09.355Z,4.39051
2024-02-07T14:42:11.052Z,4.36066
2024-02-07T14:47:12.558Z,4.30095
2024-02-07T14:52:16.364Z,4.26062
2024-02-07T14:57:18.529Z,4.49849
2024-02-07T15:02:20.476Z,4.48769
2024-02-07T15:07:22.264Z,4.29142
2024-02-07T15:12:23.943Z,4.33049
2024-02-07T15:17:25.506Z,4.16439
2024-02-07T15:22:27.198Z,3.79823
2024-02-07T15:27:28.866Z,4.23204
2024-02-07T15:32:30.348Z,4.22442
2024-02-07T15:37:32.029Z,4.23902
2024-02-07T15:42:33.758Z,4.63885
2024-02-07T15:47:35.376Z,4.46165
2024-02-07T15:52:37.391Z,4.71444
2024-02-07T15:57:39.206Z,4.64425
2024-02-07T16:02:41.191Z,4.74937
2024-02-07T16:07:42.968Z,3.9964
2024-02-07T16:12:44.677Z,3.99703
2024-02-07T16:17:46.170Z,4.09294
2024-02-07T16:22:47.812Z,4.46292
2024-02-07T16:27:49.405Z,4.66871
2024-02-07T16:32:50.928Z,4.81829
2024-02-07T16:37:52.423Z,4.94405
2024-02-07T16:42:54.371Z,4.70555
2024-02-07T16:47:56.118Z,5.03392
2024-02-07T16:52:57.944Z,5.05901
2024-02-07T16:57:59.663Z,4.21997
2024-02-07T17:03:01.241Z,4.04054
2024-02-07T17:08:03.081Z,3.24819
2024-02-07T17:13:05.095Z,4.00211
2024-02-07T17:18:07.189Z,4.44958
2024-02-07T17:23:09.322Z,4.21616
2024-02-07T17:28:10.908Z,4.28571
2024-02-07T17:33:12.753Z,3.81887
2024-02-07T17:38:14.564Z,4.37018
2024-02-07T17:43:16.119Z,4.69411
2024-02-07T17:48:17.905Z,4.58582
2024-02-07T17:53:19.842Z,5.03265
2024-02-07T17:58:21.710Z,5.28354
2024-02-07T18:03:23.516Z,5.60017
2024-02-07T18:08:25.414Z,5.85678
2024-02-07T18:13:26.965Z,5.22701
2024-02-07T18:18:28.854Z,4.86942
2024-02-07T18:23:30.568Z,4.83734
2024-02-07T18:28:32.349Z,5.25718
2024-02-07T18:33:34.181Z,5.59191
2024-02-07T18:38:35.853Z,5.84217
2024-02-07T18:43:37.367Z,5.5646
2024-02-07T18:48:39.429Z,6.16579
2024-02-07T18:53:41.010Z,6.0794
2024-02-07T18:58:42.685Z,6.51672
2024-02-07T19:03:44.546Z,7.06773
2024-02-07T19:08:46.237Z,8.0205
2024-02-07T19:13:47.885Z,7.73562
2024-02-07T19:18:49.899Z,7.85821
2024-02-07T19:23:51.953Z,7.82327
2024-02-07T19:28:54.232Z,7.53617
2024-02-07T19:33:55.973Z,7.39485
2024-02-07T19:38:57.678Z,8.52198
2024-02-07T19:43:59.918Z,8.86911
2024-02-07T19:49:01.690Z,10.52347
2024-02-07T19:54:03.231Z,11.4442
2024-02-07T19:59:04.997Z,10.87315
2024-02-07T20:04:06.998Z,11.62713
2024-02-07T20:09:08.616Z,12.29601
2024-02-07T20:14:10.296Z,11.79547
2024-02-07T20:19:12.317Z,12.42877
2024-02-07T20:24:14.120Z,11.11135
2024-02-07T20:29:15.875Z,10.1487
2024-02-07T20:34:17.407Z,10.2967
2024-02-07T20:39:19.282Z,10.18364
2024-02-07T20:44:20.952Z,10.36117
2024-02-07T20:49:22.814Z,11.1844
2024-02-07T20:54:24.598Z,11.67255
2024-02-07T20:59:26.552Z,11.4696
2024-02-07T21:04:28.439Z,11.87296
2024-02-07T21:09:30.318Z,11.09928
2024-02-07T21:14:31.889Z,11.60998
2024-02-07T21:19:33.663Z,10.82042
2024-02-07T21:24:35.507Z,10.79438
2024-02-07T21:29:37.162Z,9.97307
2024-02-07T21:34:38.740Z,10.00483
2024-02-07T21:39:40.466Z,10.45645
2024-02-07T21:44:42.165Z,10.80963
2024-02-07T21:49:43.915Z,9.56686
2024-02-07T21:54:45.567Z,9.73297
2024-02-07T21:59:47.191Z,9.7047
2024-02-07T22:04:48.963Z,9.20607
2024-02-07T22:09:50.633Z,9.5008
2024-02-07T22:14:52.355Z,8.98439
2024-02-07T22:19:54.024Z,9.87207
2024-02-07T22:24:56.153Z,9.34518
2024-02-07T22:29:57.676Z,9.60085
2024-02-07T22:34:59.299Z,8.66299
2024-02-07T22:40:00.802Z,7.64415
2024-02-07T22:45:02.441Z,7.69433
2024-02-07T22:50:04.079Z,8.40034
2024-02-07T22:55:05.613Z,8.07925
2024-02-07T23:00:07.128Z,8.59693
2024-02-07T23:05:08.661Z,8.39939
2024-02-07T23:10:10.166Z,8.77986
2024-02-07T23:15:11.648Z,8.65282
2024-02-07T23:20:13.632Z,7.97794
2024-02-07T23:25:15.194Z,7.85408
2024-02-07T23:30:16.623Z,8.41781
2024-02-07T23:35:18.486Z,8.63377
2024-02-07T23:40:19.920Z,7.89918
2024-02-07T23:45:21.422Z,8.40637
2024-02-07T23:50:22.961Z,8.03352
2024-02-07T23:55:24.454Z,8.071
